Time;durP1;ratioP1;P1;durP2;ratioP2;P2;SDS_P1;SDS_P2;PMS_P1;PMS_P2;Temp;Humidity;BMP_temperature;BMP_pressure;BME280_temperature;BME280_humidity;BME280_pressure;Samples;Min_cycle;Max_cycle;Signal;HPM_P1;HPM_P2
2022/09/28 00:02:07;;;;;;;22.20;10.43;;;;;;;;;;5055318;28;20045;-83
2022/09/28 00:04:52;;;;;;;24.88;11.70;;;;;;;;;;5056264;28;20045;-82
2022/09/28 00:07:37;;;;;;;25.63;12.73;;;;;;;;;;5056626;28;20041;-82
2022/09/28 00:10:24;;;;;;;26.52;13.50;;;;;;;;;;5056877;28;20053;-82
2022/09/28 00:13:12;;;;;;;18.20;11.55;;;;;;;;;;5062550;28;20040;-82
2022/09/28 00:16:10;;;;;;;22.00;10.32;;;;;;;;;;5061553;28;20041;-84
2022/09/28 00:18:56;;;;;;;21.08;11.95;;;;;;;;;;5056875;28;20045;-83
2022/09/28 00:21:42;;;;;;;27.20;15.40;;;;;;;;;;5056393;28;20041;-84
2022/09/28 00:24:28;;;;;;;31.08;17.55;;;;;;;;;;5055716;28;20049;-83
2022/09/28 00:27:13;;;;;;;30.73;15.35;;;;;;;;;;5041910;28;20053;-84
2022/09/28 00:29:58;;;;;;;24.42;12.45;;;;;;;;;;5061147;28;20048;-84
2022/09/28 00:32:43;;;;;;;22.40;10.13;;;;;;;;;;5062281;28;20045;-84
2022/09/28 00:35:28;;;;;;;66.57;29.23;;;;;;;;;;5062143;28;20049;-84
2022/09/28 00:38:15;;;;;;;27.95;16.33;;;;;;;;;;5056609;28;20041;-84
2022/09/28 00:41:01;;;;;;;24.35;10.15;;;;;;;;;;5056688;28;20049;-83
2022/09/28 00:43:47;;;;;;;19.70;10.05;;;;;;;;;;5061722;28;20056;-84
2022/09/28 00:46:34;;;;;;;16.92;8.50;;;;;;;;;;5055383;28;20045;-84
2022/09/28 00:49:29;;;;;;;13.88;8.55;;;;;;;;;;5061921;28;20053;-84
2022/09/28 00:52:20;;;;;;;15.00;7.90;;;;;;;;;;5054991;28;20049;-84
2022/09/28 00:55:09;;;;;;;18.08;10.43;;;;;;;;;;5056162;28;20049;-84
2022/09/28 00:57:59;;;;;;;20.80;10.80;;;;;;;;;;5060858;28;20049;-84
2022/09/28 01:00:44;;;;;;;23.73;11.25;;;;;;;;;;5062086;28;20053;-84
2022/09/28 01:03:32;;;;;;;18.40;11.18;;;;;;;;;;5056415;28;20033;-84
2022/09/28 01:06:21;;;;;;;22.00;11.35;;;;;;;;;;5055469;28;20049;-84
2022/09/28 01:09:11;;;;;;;17.73;10.80;;;;;;;;;;5061705;28;20037;-84
2022/09/28 01:11:56;;;;;;;19.55;10.57;;;;;;;;;;5061159;28;20048;-84
2022/09/28 01:14:43;;;;;;;15.85;8.60;;;;;;;;;;5061639;28;20395;-84
2022/09/28 01:17:58;;;;;;;15.15;8.00;;;;;;;;;;5061819;28;20040;-83
2022/09/28 01:21:11;;;;;;;15.38;7.47;;;;;;;;;;5050819;28;20052;-83
2022/09/28 01:24:18;;;;;;;18.37;7.20;;;;;;;;;;5055687;28;20045;-84
2022/09/28 01:27:11;;;;;;;13.07;6.82;;;;;;;;;;5060831;28;20402;-84
2022/09/28 01:30:06;;;;;;;12.65;6.93;;;;;;;;;;5055621;28;20041;-83
2022/09/28 01:33:07;;;;;;;13.35;6.90;;;;;;;;;;5054823;28;20048;-84
2022/09/28 01:36:03;;;;;;;13.63;7.40;;;;;;;;;;5061522;28;20052;-83
2022/09/28 01:38:54;;;;;;;13.30;7.15;;;;;;;;;;5055608;28;20037;-84
2022/09/28 01:41:45;;;;;;;17.70;6.50;;;;;;;;;;5054701;28;20048;-84
2022/09/28 01:44:38;;;;;;;13.23;6.70;;;;;;;;;;5055772;28;20037;-84
2022/09/28 01:47:33;;;;;;;11.25;6.20;;;;;;;;;;5056525;28;20048;-84
2022/09/28 01:50:22;;;;;;;9.80;5.53;;;;;;;;;;5055764;28;20041;-84
2022/09/28 01:53:15;;;;;;;11.52;5.28;;;;;;;;;;5060912;28;20040;-84
2022/09/28 01:56:45;;;;;;;12.80;5.68;;;;;;;;;;5060734;28;20052;-84
2022/09/28 01:59:33;;;;;;;15.70;5.53;;;;;;;;;;5052907;28;20049;-84
2022/09/28 02:02:24;;;;;;;13.02;5.85;;;;;;;;;;5046069;28;20474;-84
2022/09/28 02:05:19;;;;;;;19.20;9.65;;;;;;;;;;5061023;28;20053;-84
2022/09/28 02:08:12;;;;;;;15.32;7.72;;;;;;;;;;5059886;28;20053;-84
2022/09/28 02:11:13;;;;;;;14.38;8.02;;;;;;;;;;5054825;28;20402;-83
2022/09/28 02:14:04;;;;;;;15.77;7.28;;;;;;;;;;5060377;28;20057;-83
2022/09/28 02:16:53;;;;;;;16.70;6.85;;;;;;;;;;5059489;28;20049;-84
2022/09/28 02:19:43;;;;;;;7.72;5.50;;;;;;;;;;5060366;28;20057;-83
2022/09/28 02:22:42;;;;;;;12.45;5.88;;;;;;;;;;5059994;28;20037;-84
2022/09/28 02:26:00;;;;;;;9.32;5.43;;;;;;;;;;5060331;28;20048;-83
2022/09/28 02:28:46;;;;;;;10.27;6.75;;;;;;;;;;5043175;28;20040;-84
2022/09/28 02:31:31;;;;;;;20.25;12.00;;;;;;;;;;5052901;28;20041;-83
2022/09/28 02:34:17;;;;;;;16.20;8.63;;;;;;;;;;5060233;28;20494;-83
2022/09/28 02:37:02;;;;;;;9.25;5.22;;;;;;;;;;5053802;28;20048;-83
2022/09/28 02:39:47;;;;;;;49.97;24.20;;;;;;;;;;5054560;28;20045;-83
2022/09/28 02:42:42;;;;;;;10.82;5.55;;;;;;;;;;5060937;28;20049;-82
2022/09/28 02:45:40;;;;;;;10.65;4.78;;;;;;;;;;5059878;28;20049;-82
2022/09/28 02:48:32;;;;;;;10.02;4.20;;;;;;;;;;5053860;28;20045;-85
2022/09/28 02:51:36;;;;;;;10.57;3.78;;;;;;;;;;5059220;28;20045;-84
2022/09/28 02:54:35;;;;;;;9.18;3.70;;;;;;;;;;5046609;28;20057;-83
2022/09/28 02:57:56;;;;;;;7.45;3.38;;;;;;;;;;5060162;28;20040;-83
2022/09/28 03:00:56;;;;;;;15.07;4.15;;;;;;;;;;5060107;28;20056;-84
2022/09/28 03:04:20;;;;;;;10.18;4.60;;;;;;;;;;5059676;28;20052;-85
2022/09/28 03:07:31;;;;;;;16.00;8.32;;;;;;;;;;5051780;28;20058;-84
2022/09/28 03:10:42;;;;;;;31.30;14.77;;;;;;;;;;5035183;28;20052;-84
2022/09/28 03:13:28;;;;;;;55.17;28.83;;;;;;;;;;5059539;28;20048;-84
2022/09/28 03:16:16;;;;;;;59.13;30.38;;;;;;;;;;5045885;28;20049;-84
2022/09/28 03:19:03;;;;;;;58.10;31.58;;;;;;;;;;5045461;28;20048;-84
2022/09/28 03:21:49;;;;;;;48.75;26.27;;;;;;;;;;5059904;28;20049;-83
2022/09/28 03:24:34;;;;;;;28.75;17.08;;;;;;;;;;5054601;28;20049;-84
2022/09/28 03:27:20;;;;;;;21.13;12.00;;;;;;;;;;5059170;28;20398;-84
2022/09/28 03:30:06;;;;;;;19.58;9.73;;;;;;;;;;5059516;28;20049;-84
2022/09/28 03:32:59;;;;;;;15.00;8.02;;;;;;;;;;5059786;28;20033;-84
2022/09/28 03:35:47;;;;;;;20.13;8.07;;;;;;;;;;5059560;28;20041;-83
2022/09/28 03:38:32;;;;;;;14.13;7.38;;;;;;;;;;5052433;28;20500;-83
2022/09/28 03:41:18;;;;;;;11.40;6.82;;;;;;;;;;5059153;28;20038;-83
2022/09/28 03:44:03;;;;;;;10.48;5.97;;;;;;;;;;5045575;28;20045;-84
2022/09/28 03:46:51;;;;;;;8.98;6.22;;;;;;;;;;5058754;28;20041;-84
2022/09/28 03:49:37;;;;;;;8.70;5.75;;;;;;;;;;5058673;28;20040;-84
2022/09/28 03:52:22;;;;;;;18.38;9.15;;;;;;;;;;5060537;28;20041;-84
2022/09/28 03:55:08;;;;;;;25.33;13.73;;;;;;;;;;5058850;28;20037;-84
2022/09/28 03:57:54;;;;;;;28.98;11.05;;;;;;;;;;5044982;28;20045;-83
2022/09/28 04:00:40;;;;;;;25.60;10.65;;;;;;;;;;5059071;28;20048;-84
2022/09/28 04:03:26;;;;;;;26.63;13.38;;;;;;;;;;5055299;28;20057;-84
2022/09/28 04:06:11;;;;;;;21.88;11.18;;;;;;;;;;5063190;28;20470;-83
2022/09/28 04:08:57;;;;;;;26.17;13.55;;;;;;;;;;5062656;28;20053;-85
2022/09/28 04:11:43;;;;;;;32.03;17.23;;;;;;;;;;5063192;28;20045;-83
2022/09/28 04:14:28;;;;;;;36.38;17.75;;;;;;;;;;5063216;28;20041;-84
2022/09/28 04:17:13;;;;;;;34.63;18.02;;;;;;;;;;5062213;28;20049;-84
2022/09/28 04:20:01;;;;;;;33.05;17.77;;;;;;;;;;5063188;28;20386;-82
2022/09/28 04:23:09;;;;;;;33.05;15.93;;;;;;;;;;5056028;28;20048;-82
2022/09/28 04:25:54;;;;;;;23.27;13.32;;;;;;;;;;5056872;28;20037;-81
2022/09/28 04:31:46;;;;;;;22.42;8.88;;;;;;;;;;5062079;28;20045;-82
2022/09/28 04:34:33;;;;;;;19.65;9.85;;;;;;;;;;5048607;28;20048;-82
2022/09/28 04:37:19;;;;;;;16.63;9.55;;;;;;;;;;5056420;28;20049;-85
2022/09/28 04:40:05;;;;;;;23.90;8.20;;;;;;;;;;5056854;28;20053;-82
2022/09/28 04:42:54;;;;;;;15.15;7.15;;;;;;;;;;5061886;28;20049;-83
2022/09/28 04:45:40;;;;;;;24.23;6.95;;;;;;;;;;5061536;28;20041;-82
2022/09/28 04:48:28;;;;;;;21.20;9.55;;;;;;;;;;5055316;28;20053;-82
2022/09/28 04:51:24;;;;;;;14.35;5.45;;;;;;;;;;5062327;28;20088;-82
2022/09/28 04:54:10;;;;;;;13.52;6.00;;;;;;;;;;5061821;28;20041;-83
2022/09/28 04:56:56;;;;;;;15.55;7.75;;;;;;;;;;5055998;28;20058;-83
2022/09/28 04:59:43;;;;;;;11.02;7.85;;;;;;;;;;5047838;28;20394;-84
2022/09/28 05:02:29;;;;;;;12.95;6.03;;;;;;;;;;5062017;28;20041;-82
2022/09/28 05:05:44;;;;;;;14.63;5.78;;;;;;;;;;5062435;28;20406;-82
2022/09/28 05:08:56;;;;;;;15.95;6.32;;;;;;;;;;5062729;28;20052;-83
2022/09/28 05:11:41;;;;;;;11.38;6.63;;;;;;;;;;5062031;28;20053;-82
2022/09/28 05:14:33;;;;;;;14.50;8.20;;;;;;;;;;5047453;28;20482;-82
2022/09/28 05:17:26;;;;;;;14.27;8.88;;;;;;;;;;5061419;28;20049;-81
2022/09/28 05:21:14;;;;;;;;;;;;;;;;;;;;;
2022/09/28 06:22:01;;;;;;;23.55;15.55;;;;;;;;;;5116936;27;20052;-84
2022/09/28 06:25:01;;;;;;;30.35;16.08;;;;;;;;;;5072806;28;20036;-84
2022/09/28 06:28:12;;;;;;;24.23;15.68;;;;;;;;;;5079759;28;20052;-84
2022/09/28 06:31:40;;;;;;;24.45;15.63;;;;;;;;;;5087154;28;20048;-84
2022/09/28 06:34:48;;;;;;;29.73;17.93;;;;;;;;;;5073434;28;20040;-84
2022/09/28 06:37:46;;;;;;;31.13;18.50;;;;;;;;;;5072951;28;20048;-84
2022/09/28 06:40:33;;;;;;;33.33;22.45;;;;;;;;;;5086378;28;20041;-84
2022/09/28 06:46:55;;;;;;;34.75;22.83;;;;;;;;;;5094464;28;20040;-79
2022/09/28 06:49:41;;;;;;;33.30;22.55;;;;;;;;;;5094329;28;20421;-85
2022/09/28 06:52:35;;;;;;;22.52;16.23;;;;;;;;;;5087425;28;20044;-86
2022/09/28 06:55:51;;;;;;;24.58;12.07;;;;;;;;;;5074941;28;20401;-85
2022/09/28 06:58:54;;;;;;;23.48;12.73;;;;;;;;;;5081712;28;20036;-85
2022/09/28 07:02:08;;;;;;;;;;;;;;;;;;;;;
2022/09/28 07:05:15;;;;;;;20.00;11.63;;;;;;;;;;5095587;28;20056;-85
2022/09/28 07:09:01;;;;;;;20.20;12.98;;;;;;;;;;5075251;28;20389;-87
2022/09/28 07:33:55;;;;;;;8.73;6.30;;;;;;;;;;5020695;28;20037;-88
2022/09/28 07:37:25;;;;;;;11.63;6.70;;;;;;;;;;5001983;28;20045;-86
2022/09/28 07:43:23;;;;;;;14.85;8.70;;;;;;;;;;5023288;28;20061;-84
2022/09/28 07:46:15;;;;;;;13.38;8.60;;;;;;;;;;4996025;28;20049;-83
2022/09/28 07:49:15;;;;;;;14.13;9.50;;;;;;;;;;5010436;28;20054;-85
2022/09/28 07:52:25;;;;;;;9.90;7.15;;;;;;;;;;5022988;28;20034;-85
2022/09/28 07:55:29;;;;;;;14.25;6.32;;;;;;;;;;5018036;28;20485;-85
2022/09/28 07:58:19;;;;;;;17.25;7.72;;;;;;;;;;5016972;28;20050;-85
2022/09/28 08:01:39;;;;;;;11.40;6.78;;;;;;;;;;5013043;28;20042;-85
2022/09/28 08:04:28;;;;;;;13.15;7.65;;;;;;;;;;4995454;28;20359;-85
2022/09/28 08:07:40;;;;;;;12.02;7.72;;;;;;;;;;5009575;28;20046;-86
2022/09/28 08:10:51;;;;;;;13.32;7.78;;;;;;;;;;4996261;28;20046;-86
2022/09/28 08:14:10;;;;;;;11.75;7.15;;;;;;;;;;4997749;28;20399;-85
2022/09/28 08:17:18;;;;;;;13.05;7.72;;;;;;;;;;4998165;28;20037;-84
2022/09/28 08:23:56;;;;;;;15.40;8.38;;;;;;;;;;5017118;28;20049;-85
2022/09/28 08:26:52;;;;;;;13.23;8.32;;;;;;;;;;5008623;28;20038;-87
2022/09/28 08:29:46;;;;;;;12.05;8.50;;;;;;;;;;5023491;28;20042;-86
2022/09/28 08:33:12;;;;;;;13.13;8.30;;;;;;;;;;5011679;28;20481;-86
2022/09/28 08:36:03;;;;;;;16.40;8.20;;;;;;;;;;5021217;28;20046;-86
2022/09/28 08:39:07;;;;;;;16.77;8.02;;;;;;;;;;5018192;28;20041;-84
2022/09/28 08:42:22;;;;;;;12.80;7.80;;;;;;;;;;5012376;28;20050;-86
2022/09/28 08:45:32;;;;;;;12.15;7.68;;;;;;;;;;5002386;28;20062;-86
2022/09/28 08:48:42;;;;;;;12.90;6.97;;;;;;;;;;5008061;28;20049;-83
2022/09/28 08:51:53;;;;;;;11.82;7.93;;;;;;;;;;5023497;28;20046;-83
2022/09/28 08:54:59;;;;;;;10.90;6.82;;;;;;;;;;5024429;28;20061;-84
2022/09/28 08:58:22;;;;;;;12.10;7.10;;;;;;;;;;5006881;28;20046;-83
2022/09/28 09:01:12;;;;;;;11.15;6.25;;;;;;;;;;5020950;28;20046;-83
2022/09/28 09:03:58;;;;;;;12.73;7.88;;;;;;;;;;5010685;28;20050;-84
2022/09/28 09:07:39;;;;;;;11.32;8.10;;;;;;;;;;4997681;28;20047;-84
2022/09/28 09:10:39;;;;;;;13.80;8.65;;;;;;;;;;4987100;28;20482;-85
2022/09/28 09:13:58;;;;;;;17.88;7.35;;;;;;;;;;5008504;28;20042;-83
2022/09/28 09:16:54;;;;;;;14.38;6.43;;;;;;;;;;4990604;28;20041;-84
2022/09/28 09:20:13;;;;;;;11.00;5.95;;;;;;;;;;5016466;28;20041;-86
2022/09/28 09:23:15;;;;;;;10.93;5.70;;;;;;;;;;5018972;28;20050;-84
2022/09/28 09:26:19;;;;;;;8.05;5.55;;;;;;;;;;5008421;28;20397;-83
2022/09/28 09:29:13;;;;;;;11.98;5.25;;;;;;;;;;5021653;28;20051;-84
2022/09/28 09:32:44;;;;;;;8.00;5.05;;;;;;;;;;5021713;28;20046;-83
2022/09/28 09:35:48;;;;;;;9.00;5.80;;;;;;;;;;5007976;28;20046;-85
2022/09/28 09:38:56;;;;;;;9.77;4.72;;;;;;;;;;5003171;28;20492;-83
2022/09/28 09:42:10;;;;;;;7.32;4.80;;;;;;;;;;5013527;28;20045;-83
2022/09/28 09:45:37;;;;;;;6.95;4.75;;;;;;;;;;5000764;28;20054;-84
2022/09/28 09:48:55;;;;;;;8.60;4.88;;;;;;;;;;5021932;28;20054;-84
2022/09/28 09:51:40;;;;;;;6.75;4.63;;;;;;;;;;5006229;28;20042;-85
2022/09/28 09:54:34;;;;;;;8.43;4.80;;;;;;;;;;5007634;28;20049;-83
2022/09/28 09:57:29;;;;;;;6.83;4.50;;;;;;;;;;5007161;28;20090;-83
2022/09/28 10:00:34;;;;;;;10.88;4.18;;;;;;;;;;5001090;28;20291;-85
2022/09/28 10:03:33;;;;;;;7.90;4.45;;;;;;;;;;5007228;28;20049;-83
2022/09/28 10:06:34;;;;;;;8.63;4.50;;;;;;;;;;5020855;28;20041;-85
2022/09/28 10:09:24;;;;;;;7.07;4.82;;;;;;;;;;5021142;28;20049;-84
2022/09/28 10:12:17;;;;;;;7.05;4.28;;;;;;;;;;5020282;28;20581;-85
2022/09/28 10:15:06;;;;;;;8.02;4.00;;;;;;;;;;5020674;28;20443;-83
2022/09/28 10:18:05;;;;;;;9.20;3.30;;;;;;;;;;5020473;28;20045;-86
2022/09/28 10:21:19;;;;;;;7.63;3.70;;;;;;;;;;5014651;28;20050;-84
2022/09/28 10:24:15;;;;;;;12.43;3.92;;;;;;;;;;5017188;28;20050;-87
2022/09/28 10:27:07;;;;;;;6.82;4.22;;;;;;;;;;4993295;28;20046;-86
2022/09/28 10:29:53;;;;;;;5.03;2.70;;;;;;;;;;5008636;28;20495;-85
2022/09/28 10:32:47;;;;;;;4.68;3.03;;;;;;;;;;4988408;28;20042;-85
2022/09/28 10:35:42;;;;;;;8.25;2.95;;;;;;;;;;4993864;28;20045;-83
2022/09/28 10:38:30;;;;;;;5.60;3.47;;;;;;;;;;5020669;28;20045;-87
2022/09/28 10:41:25;;;;;;;8.45;3.35;;;;;;;;;;4994698;28;20477;-85
2022/09/28 10:44:21;;;;;;;7.28;3.42;;;;;;;;;;5002351;28;20041;-84
2022/09/28 10:47:24;;;;;;;5.18;3.15;;;;;;;;;;5019876;28;20054;-84
2022/09/28 10:50:22;;;;;;;8.43;3.35;;;;;;;;;;4993527;28;20049;-86
2022/09/28 10:53:20;;;;;;;5.10;3.22;;;;;;;;;;4992703;28;20393;-84
2022/09/28 10:56:27;;;;;;;6.90;3.05;;;;;;;;;;5005762;28;20046;-85
2022/09/28 10:59:28;;;;;;;7.40;3.50;;;;;;;;;;5020099;28;20045;-85
2022/09/28 11:02:24;;;;;;;8.50;3.60;;;;;;;;;;5020115;28;20042;-85
2022/09/28 11:05:23;;;;;;;8.07;3.60;;;;;;;;;;5007417;28;20054;-84
2022/09/28 11:08:22;;;;;;;9.32;3.92;;;;;;;;;;5006258;28;20053;-84
2022/09/28 11:11:11;;;;;;;5.88;2.90;;;;;;;;;;5006394;28;20050;-84
2022/09/28 11:14:00;;;;;;;9.43;3.70;;;;;;;;;;5006406;28;20049;-83
2022/09/28 11:16:47;;;;;;;8.98;3.33;;;;;;;;;;4992623;28;20045;-84
2022/09/28 11:19:32;;;;;;;4.65;3.17;;;;;;;;;;5019608;28;20481;-84
2022/09/28 11:22:28;;;;;;;6.47;3.20;;;;;;;;;;5006110;28;20042;-85
2022/09/28 11:25:23;;;;;;;4.38;3.35;;;;;;;;;;5020201;28;20050;-84
2022/09/28 11:28:23;;;;;;;9.93;4.20;;;;;;;;;;5019819;28;20050;-85
2022/09/28 11:31:10;;;;;;;5.78;3.67;;;;;;;;;;5014792;28;20046;-83
2022/09/28 11:34:42;;;;;;;10.40;4.43;;;;;;;;;;5013967;28;20481;-85
2022/09/28 11:37:36;;;;;;;7.90;4.25;;;;;;;;;;5006060;28;20046;-84
2022/09/28 11:40:40;;;;;;;6.82;3.65;;;;;;;;;;5012124;28;20037;-86
2022/09/28 11:43:35;;;;;;;5.50;4.20;;;;;;;;;;5019616;28;20054;-85
2022/09/28 11:46:49;;;;;;;7.57;3.47;;;;;;;;;;5006476;28;20046;-84
2022/09/28 11:49:47;;;;;;;8.80;4.03;;;;;;;;;;5005418;28;20049;-86
2022/09/28 11:52:47;;;;;;;9.20;4.60;;;;;;;;;;5022904;28;20045;-87
2022/09/28 11:55:39;;;;;;;6.63;3.67;;;;;;;;;;5011830;28;20049;-84
2022/09/28 11:58:51;;;;;;;6.68;4.35;;;;;;;;;;5019514;28;20046;-84
2022/09/28 12:02:09;;;;;;;7.20;3.97;;;;;;;;;;5016529;28;20046;-88
2022/09/28 12:05:13;;;;;;;6.90;3.92;;;;;;;;;;4997836;28;20047;-86
2022/09/28 12:08:07;;;;;;;5.72;3.58;;;;;;;;;;4986830;28;20054;-85
2022/09/28 12:11:38;;;;;;;9.30;4.45;;;;;;;;;;5003945;28;20409;-85
2022/09/28 12:14:53;;;;;;;7.82;4.03;;;;;;;;;;5000312;28;20038;-86
2022/09/28 12:17:44;;;;;;;6.20;3.92;;;;;;;;;;5018753;28;20038;-84
2022/09/28 12:20:39;;;;;;;10.48;4.65;;;;;;;;;;5005735;28;20058;-84
2022/09/28 12:23:33;;;;;;;6.53;3.72;;;;;;;;;;5010972;28;20053;-85
2022/09/28 12:26:31;;;;;;;5.18;3.08;;;;;;;;;;5002919;28;20050;-86
2022/09/28 12:29:28;;;;;;;7.43;3.28;;;;;;;;;;5008420;28;20054;-85
2022/09/28 12:32:29;;;;;;;14.43;3.70;;;;;;;;;;5007779;28;20401;-86
2022/09/28 12:35:43;;;;;;;9.23;3.38;;;;;;;;;;5021726;28;20042;-86
2022/09/28 12:38:54;;;;;;;11.60;3.70;;;;;;;;;;5008560;28;20046;-86
2022/09/28 12:41:54;;;;;;;7.70;3.50;;;;;;;;;;5022596;28;20046;-86
2022/09/28 12:44:52;;;;;;;4.85;3.42;;;;;;;;;;5003305;28;20046;-85
2022/09/28 12:47:58;;;;;;;7.53;3.80;;;;;;;;;;5008696;28;20079;-87
2022/09/28 12:51:08;;;;;;;4.07;3.08;;;;;;;;;;5008900;28;20038;-86
2022/09/28 12:54:11;;;;;;;6.95;3.80;;;;;;;;;;4995734;28;20053;-85
2022/09/28 12:57:24;;;;;;;7.68;3.65;;;;;;;;;;5016441;28;20485;-86
2022/09/28 13:00:24;;;;;;;6.03;3.78;;;;;;;;;;5016546;28;20050;-84
2022/09/28 13:03:44;;;;;;;6.70;3.53;;;;;;;;;;4979103;28;20045;-85
2022/09/28 13:06:30;;;;;;;6.55;3.60;;;;;;;;;;4996189;28;20058;-86
2022/09/28 13:09:23;;;;;;;6.43;3.75;;;;;;;;;;4975443;28;20058;-85
2022/09/28 13:12:24;;;;;;;7.85;3.45;;;;;;;;;;5018781;28;20057;-85
2022/09/28 13:15:26;;;;;;;7.57;4.10;;;;;;;;;;5001907;28;20426;-87
2022/09/28 13:18:26;;;;;;;6.32;4.03;;;;;;;;;;5003194;28;20062;-85
2022/09/28 13:21:25;;;;;;;8.90;4.30;;;;;;;;;;4989717;28;20054;-86
2022/09/28 13:24:18;;;;;;;8.07;4.03;;;;;;;;;;5007158;28;20046;-86
2022/09/28 13:27:16;;;;;;;7.38;3.90;;;;;;;;;;5021031;28;20038;-85
2022/09/28 13:30:05;;;;;;;8.60;4.25;;;;;;;;;;5008380;28;20046;-88
2022/09/28 13:32:53;;;;;;;9.38;4.47;;;;;;;;;;5008037;28;20050;-86
2022/09/28 13:35:42;;;;;;;8.55;4.45;;;;;;;;;;4994014;28;20053;-83
2022/09/28 13:38:46;;;;;;;7.97;4.47;;;;;;;;;;5019869;28;20500;-84
2022/09/28 13:41:37;;;;;;;7.10;4.55;;;;;;;;;;5008872;28;20054;-83
2022/09/28 13:44:56;;;;;;;10.80;5.07;;;;;;;;;;5009286;28;20054;-84
2022/09/28 13:48:16;;;;;;;7.15;5.22;;;;;;;;;;5007249;28;20045;-85
2022/09/28 13:51:39;;;;;;;9.27;5.30;;;;;;;;;;5007646;28;20408;-83
2022/09/28 13:55:00;;;;;;;11.20;5.38;;;;;;;;;;4985326;28;20053;-87
2022/09/28 13:58:16;;;;;;;8.98;5.40;;;;;;;;;;4989367;28;20046;-85
2022/09/28 14:01:22;;;;;;;11.27;5.55;;;;;;;;;;4993744;28;20517;-84
2022/09/28 14:04:44;;;;;;;11.68;5.50;;;;;;;;;;5001325;28;20050;-84
2022/09/28 14:07:35;;;;;;;9.43;5.82;;;;;;;;;;4993335;28;20065;-84
2022/09/28 14:10:23;;;;;;;11.68;5.50;;;;;;;;;;5016644;28;20477;-85
2022/09/28 14:13:09;;;;;;;11.75;6.20;;;;;;;;;;4993244;28;20062;-85
2022/09/28 14:16:17;;;;;;;10.35;5.03;;;;;;;;;;5006602;28;20062;-85
2022/09/28 14:19:11;;;;;;;7.82;5.75;;;;;;;;;;5006790;28;20046;-86
2022/09/28 14:22:03;;;;;;;16.90;10.13;;;;;;;;;;5000132;28;20481;-83
2022/09/28 14:25:09;;;;;;;11.35;7.10;;;;;;;;;;5006595;28;20050;-85
2022/09/28 14:28:18;;;;;;;12.57;7.57;;;;;;;;;;5020262;28;20050;-84
2022/09/28 14:31:16;;;;;;;12.52;6.57;;;;;;;;;;5002687;28;20397;-85
2022/09/28 14:34:02;;;;;;;11.40;6.75;;;;;;;;;;4993816;28;20073;-85
2022/09/28 14:43:23;;;;;;;8.75;6.47;;;;;;;;;;5011846;28;20477;-84
2022/09/28 14:46:14;;;;;;;8.15;5.93;;;;;;;;;;5009032;28;20046;-85
2022/09/28 14:49:05;;;;;;;10.15;6.18;;;;;;;;;;5011148;28;20042;-86
2022/09/28 14:51:54;;;;;;;7.03;5.78;;;;;;;;;;4998024;28;20141;-86
2022/09/28 14:54:52;;;;;;;12.00;7.95;;;;;;;;;;4997555;28;20046;-84
2022/09/28 14:57:40;;;;;;;11.18;6.80;;;;;;;;;;5000582;28;20045;-83
2022/09/28 15:00:30;;;;;;;14.90;7.22;;;;;;;;;;5014655;28;20042;-85
2022/09/28 15:03:16;;;;;;;9.65;6.35;;;;;;;;;;5004633;28;20053;-82
2022/09/28 15:06:01;;;;;;;11.65;6.45;;;;;;;;;;5004040;28;20046;-83
2022/09/28 15:08:46;;;;;;;11.70;7.10;;;;;;;;;;5014727;28;20053;-82
2022/09/28 15:11:32;;;;;;;14.43;7.15;;;;;;;;;;5000190;28;20042;-81
2022/09/28 15:14:18;;;;;;;15.25;7.65;;;;;;;;;;5008320;28;20477;-83
2022/09/28 15:17:09;;;;;;;16.13;6.60;;;;;;;;;;5024480;28;20430;-84
2022/09/28 15:20:00;;;;;;;13.98;6.72;;;;;;;;;;5009307;28;20042;-86
2022/09/28 15:22:48;;;;;;;10.75;6.78;;;;;;;;;;4976337;28;20050;-85
2022/09/28 15:25:35;;;;;;;13.48;8.45;;;;;;;;;;5019323;28;20045;-85
2022/09/28 15:28:23;;;;;;;20.10;9.52;;;;;;;;;;5015940;28;20489;-85
2022/09/28 15:31:17;;;;;;;18.63;10.35;;;;;;;;;;5003045;28;20037;-85
2022/09/28 15:37:10;;;;;;;15.65;8.65;;;;;;;;;;5003527;28;20058;-83
2022/09/28 15:39:56;;;;;;;20.15;11.25;;;;;;;;;;4980059;28;20050;-84
2022/09/28 15:42:44;;;;;;;33.42;17.05;;;;;;;;;;4984752;28;20055;-85
2022/09/28 15:45:37;;;;;;;30.67;17.65;;;;;;;;;;4986596;28;20039;-86
2022/09/28 15:49:00;;;;;;;26.15;15.23;;;;;;;;;;4991551;28;20058;-84
2022/09/28 15:51:52;;;;;;;17.45;9.93;;;;;;;;;;4945006;29;20063;-85
2022/09/28 15:54:42;;;;;;;17.83;10.30;;;;;;;;;;5017795;28;20041;-84
2022/09/28 15:57:38;;;;;;;17.85;9.23;;;;;;;;;;4995335;28;20046;-84
2022/09/28 16:00:27;;;;;;;21.67;10.68;;;;;;;;;;5007860;28;20049;-85
2022/09/28 16:03:15;;;;;;;21.55;9.65;;;;;;;;;;5009214;28;20041;-86
2022/09/28 16:06:09;;;;;;;19.33;10.50;;;;;;;;;;4995426;28;20473;-86
2022/09/28 16:08:55;;;;;;;19.40;9.67;;;;;;;;;;5008551;28;20049;-87
2022/09/28 16:11:40;;;;;;;17.88;9.93;;;;;;;;;;5009512;28;20046;-83
2022/09/28 16:14:26;;;;;;;19.23;10.60;;;;;;;;;;4995941;28;20042;-85
2022/09/28 16:17:23;;;;;;;20.73;11.02;;;;;;;;;;5024468;28;20053;-87
2022/09/28 16:20:18;;;;;;;20.25;11.77;;;;;;;;;;5020969;28;20045;-85
2022/09/28 16:23:19;;;;;;;22.30;12.90;;;;;;;;;;4987343;28;20426;-85
2022/09/28 16:26:14;;;;;;;24.98;14.98;;;;;;;;;;4988829;28;20497;-84
2022/09/28 16:29:06;;;;;;;25.45;14.43;;;;;;;;;;4989570;28;20058;-85
2022/09/28 16:31:54;;;;;;;41.17;21.85;;;;;;;;;;4985557;28;20047;-82
2022/09/28 16:34:42;;;;;;;34.38;21.00;;;;;;;;;;4989940;28;20500;-86
2022/09/28 16:37:31;;;;;;;42.08;23.00;;;;;;;;;;4983469;28;20046;-85
2022/09/28 16:40:17;;;;;;;34.65;22.40;;;;;;;;;;4957133;28;20047;-87
2022/09/28 16:43:06;;;;;;;38.42;21.85;;;;;;;;;;4993732;28;20046;-84
2022/09/28 16:46:04;;;;;;;48.80;30.13;;;;;;;;;;4973551;28;20425;-84
2022/09/28 16:48:49;;;;;;;47.00;28.15;;;;;;;;;;5017087;28;20053;-85
2022/09/28 16:51:34;;;;;;;42.83;28.42;;;;;;;;;;4996834;28;20053;-84
2022/09/28 16:57:27;;;;;;;34.20;25.02;;;;;;;;;;5015888;28;20038;-82
2022/09/28 17:00:21;;;;;;;41.72;25.15;;;;;;;;;;4996289;28;20050;-81
2022/09/28 17:03:19;;;;;;;35.28;19.83;;;;;;;;;;4996800;28;20050;-81
2022/09/28 17:06:06;;;;;;;26.10;18.35;;;;;;;;;;5001987;28;20050;-81
2022/09/28 17:08:55;;;;;;;51.45;29.00;;;;;;;;;;4995437;28;20494;-81
2022/09/28 17:11:40;;;;;;;96.10;55.75;;;;;;;;;;4987439;28;20046;-82
2022/09/28 17:14:26;;;;;;;97.53;51.13;;;;;;;;;;5003459;28;20477;-81
2022/09/28 17:17:11;;;;;;;89.22;47.58;;;;;;;;;;4993231;28;20051;-82
2022/09/28 17:19:57;;;;;;;86.03;46.30;;;;;;;;;;5019309;28;20041;-83
2022/09/28 17:22:42;;;;;;;98.68;47.95;;;;;;;;;;5001628;28;20050;-83
2022/09/28 17:25:29;;;;;;;85.10;46.38;;;;;;;;;;5003132;28;20393;-80
2022/09/28 17:28:26;;;;;;;94.85;47.78;;;;;;;;;;5006426;28;20061;-84
2022/09/28 17:31:16;;;;;;;105.85;52.38;;;;;;;;;;5012115;28;20050;-82
2022/09/28 17:34:01;;;;;;;98.72;54.00;;;;;;;;;;5005134;28;20370;-85
2022/09/28 17:36:47;;;;;;;98.28;53.25;;;;;;;;;;4996608;28;20390;-86
2022/09/28 17:39:32;;;;;;;89.63;50.15;;;;;;;;;;4981259;28;20478;-86
2022/09/28 17:42:17;;;;;;;90.68;48.50;;;;;;;;;;4996276;28;20397;-84
2022/09/28 17:45:03;;;;;;;148.32;102.30;;;;;;;;;;5003988;28;20046;-84
2022/09/28 17:47:49;;;;;;;112.90;73.80;;;;;;;;;;5012365;28;20042;-83
2022/09/28 17:50:34;;;;;;;128.98;92.57;;;;;;;;;;5011404;28;20393;-81
2022/09/28 17:53:20;;;;;;;129.23;93.32;;;;;;;;;;5011840;28;20049;-83
2022/09/28 17:56:06;;;;;;;150.02;106.00;;;;;;;;;;5011438;28;20042;-80
2022/09/28 18:02:49;;;;;;;119.00;79.03;;;;;;;;;;5012018;28;20042;-88
2022/09/28 18:06:19;;;;;;;131.57;95.35;;;;;;;;;;5005964;28;20041;-87
2022/09/28 18:09:13;;;;;;;115.18;77.32;;;;;;;;;;4992067;28;20037;-84
2022/09/28 18:12:05;;;;;;;119.97;79.85;;;;;;;;;;4993106;28;20045;-86
2022/09/28 18:14:52;;;;;;;118.25;74.70;;;;;;;;;;4998906;28;20038;-83
2022/09/28 18:17:38;;;;;;;109.68;70.95;;;;;;;;;;5003008;28;20050;-84
2022/09/28 18:20:24;;;;;;;117.40;77.28;;;;;;;;;;4990260;28;20484;-82
2022/09/28 18:23:09;;;;;;;123.28;79.85;;;;;;;;;;5006123;28;20064;-85
2022/09/28 18:25:55;;;;;;;99.65;66.25;;;;;;;;;;5001074;28;20046;-83
2022/09/28 18:28:40;;;;;;;115.85;71.28;;;;;;;;;;5014744;28;20045;-82
2022/09/28 18:31:26;;;;;;;123.88;75.00;;;;;;;;;;5000044;28;20054;-84
2022/09/28 18:34:12;;;;;;;108.40;72.15;;;;;;;;;;5006701;28;20042;-85
2022/09/28 18:36:57;;;;;;;115.15;69.38;;;;;;;;;;5020191;28;20058;-85
2022/09/28 18:39:44;;;;;;;116.93;70.57;;;;;;;;;;5020699;28;20042;-87
2022/09/28 18:42:31;;;;;;;95.28;55.53;;;;;;;;;;5013972;28;20050;-83
2022/09/28 18:45:17;;;;;;;78.65;49.50;;;;;;;;;;5014024;28;20045;-84
2022/09/28 18:48:04;;;;;;;91.97;55.10;;;;;;;;;;5004912;28;20054;-83
2022/09/28 18:50:49;;;;;;;81.55;50.92;;;;;;;;;;5020617;28;20049;-84
2022/09/28 18:53:37;;;;;;;89.63;49.60;;;;;;;;;;5004354;28;20041;-82
2022/09/28 18:56:23;;;;;;;89.05;50.95;;;;;;;;;;5012913;28;20038;-87
2022/09/28 18:59:09;;;;;;;86.15;49.33;;;;;;;;;;5003427;28;20050;-85
2022/09/28 19:02:00;;;;;;;64.13;41.55;;;;;;;;;;4994298;28;20042;-85
2022/09/28 19:04:48;;;;;;;66.22;40.20;;;;;;;;;;5005379;28;20034;-84
2022/09/28 19:07:34;;;;;;;78.38;43.80;;;;;;;;;;5003556;28;20042;-85
2022/09/28 19:10:19;;;;;;;69.35;39.35;;;;;;;;;;4999063;28;20043;-84